sensor_id;sensor_type;location;lat;lon;timestamp;pressure;altitude;pressure_sealevel;temperature;humidity
44044;BME280;29709;52.396;16.796;2023-01-28T00:02:46;102663.63;;;0.66;68.92
44044;BME280;29709;52.396;16.796;2023-01-28T00:05:51;102658.20;;;0.66;69.06
44044;BME280;29709;52.396;16.796;2023-01-28T00:09:21;102663.69;;;0.65;69.05
44044;BME280;29709;52.396;16.796;2023-01-28T00:12:25;102656.73;;;0.57;69.05
44044;BME280;29709;52.396;16.796;2023-01-28T00:15:28;102664.72;;;0.61;68.78
44044;BME280;29709;52.396;16.796;2023-01-28T00:18:32;102666.14;;;0.47;69.05
44044;BME280;29709;52.396;16.796;2023-01-28T00:21:35;102666.08;;;0.49;69.29
44044;BME280;29709;52.396;16.796;2023-01-28T00:24:39;102667.84;;;0.50;69.40
44044;BME280;29709;52.396;16.796;2023-01-28T00:27:42;102659.78;;;0.48;69.41
44044;BME280;29709;52.396;16.796;2023-01-28T00:30:47;102668.79;;;0.49;69.77
44044;BME280;29709;52.396;16.796;2023-01-28T00:33:51;102667.91;;;0.48;69.74
44044;BME280;29709;52.396;16.796;2023-01-28T00:37:24;102674.37;;;0.44;70.13
44044;BME280;29709;52.396;16.796;2023-01-28T00:40:27;102657.21;;;0.45;70.04
44044;BME280;29709;52.396;16.796;2023-01-28T00:43:30;102658.97;;;0.46;69.54
44044;BME280;29709;52.396;16.796;2023-01-28T07:23:11;102795.27;;;-0.11;62.60
44044;BME280;29709;52.396;16.796;2023-01-28T07:26:40;102796.20;;;-0.10;62.76
44044;BME280;29709;52.396;16.796;2023-01-28T07:29:43;102794.96;;;0.00;62.85
44044;BME280;29709;52.396;16.796;2023-01-28T07:32:51;102796.44;;;0.09;62.83
44044;BME280;29709;52.396;16.796;2023-01-28T07:35:54;102796.07;;;0.19;62.44
44044;BME280;29709;52.396;16.796;2023-01-28T07:38:57;102790.26;;;0.32;62.88
44044;BME280;29709;52.396;16.796;2023-01-28T07:42:01;102795.38;;;0.39;63.22
44044;BME280;29709;52.396;16.796;2023-01-28T07:45:04;102792.66;;;0.39;61.87
44044;BME280;29709;52.396;16.796;2023-01-28T07:48:11;102794.98;;;0.50;62.38
44044;BME280;29709;52.396;16.796;2023-01-28T07:51:46;102788.17;;;0.65;62.56
44044;BME280;29709;52.396;16.796;2023-01-28T07:54:52;102797.31;;;0.61;62.11
44044;BME280;29709;52.396;16.796;2023-01-28T07:57:57;102791.81;;;0.64;62.33
44044;BME280;29709;52.396;16.796;2023-01-28T08:01:01;102793.58;;;0.65;62.40
44044;BME280;29709;52.396;16.796;2023-01-28T08:04:04;102792.76;;;0.63;61.95
44044;BME280;29709;52.396;16.796;2023-01-28T08:07:08;102793.84;;;0.57;61.34
44044;BME280;29709;52.396;16.796;2023-01-28T08:10:11;102790.86;;;0.65;61.63
44044;BME280;29709;52.396;16.796;2023-01-28T08:13:15;102794.88;;;0.78;61.59
44044;BME280;29709;52.396;16.796;2023-01-28T08:16:19;102794.60;;;0.85;61.88
44044;BME280;29709;52.396;16.796;2023-01-28T08:19:48;102795.83;;;0.77;61.42
44044;BME280;29709;52.396;16.796;2023-01-28T08:22:52;102788.46;;;0.80;61.11
44044;BME280;29709;52.396;16.796;2023-01-28T08:25:57;102788.52;;;0.79;61.05
44044;BME280;29709;52.396;16.796;2023-01-28T08:29:01;102788.66;;;0.99;60.94
44044;BME280;29709;52.396;16.796;2023-01-28T08:32:04;102785.55;;;1.10;61.88
44044;BME280;29709;52.396;16.796;2023-01-28T08:35:07;102792.84;;;1.08;61.26
44044;BME280;29709;52.396;16.796;2023-01-28T08:38:14;102791.25;;;1.02;60.67
44044;BME280;29709;52.396;16.796;2023-01-28T08:41:22;102794.27;;;0.95;60.77
44044;BME280;29709;52.396;16.796;2023-01-28T08:44:54;102799.77;;;0.92;60.95
44044;BME280;29709;52.396;16.796;2023-01-28T08:48:04;102797.20;;;0.89;60.99
44044;BME280;29709;52.396;16.796;2023-01-28T08:51:08;102799.20;;;0.83;60.64
44044;BME280;29709;52.396;16.796;2023-01-28T08:54:11;102802.88;;;0.81;60.70
44044;BME280;29709;52.396;16.796;2023-01-28T08:57:14;102803.55;;;0.88;61.04
44044;BME280;29709;52.396;16.796;2023-01-28T09:00:18;102805.09;;;0.95;60.72
44044;BME280;29709;52.396;16.796;2023-01-28T09:03:22;102813.37;;;0.90;60.89
44044;BME280;29709;52.396;16.796;2023-01-28T09:06:25;102814.32;;;0.89;60.88
44044;BME280;29709;52.396;16.796;2023-01-28T09:09:29;102818.45;;;0.99;61.31
44044;BME280;29709;52.396;16.796;2023-01-28T09:13:01;102812.68;;;1.08;60.76
44044;BME280;29709;52.396;16.796;2023-01-28T09:16:07;102816.81;;;1.19;60.87
44044;BME280;29709;52.396;16.796;2023-01-28T09:19:10;102818.77;;;1.15;61.16
44044;BME280;29709;52.396;16.796;2023-01-28T09:22:13;102812.48;;;1.13;60.95
44044;BME280;29709;52.396;16.796;2023-01-28T09:25:16;102816.97;;;1.14;60.52
44044;BME280;29709;52.396;16.796;2023-01-28T09:28:19;102816.15;;;1.12;60.78
44044;BME280;29709;52.396;16.796;2023-01-28T09:31:23;102814.52;;;1.08;60.95
44044;BME280;29709;52.396;16.796;2023-01-28T09:34:26;102827.67;;;0.94;60.76
44044;BME280;29709;52.396;16.796;2023-01-28T09:37:29;102811.41;;;0.94;61.11
44044;BME280;29709;52.396;16.796;2023-01-28T09:41:01;102808.63;;;0.97;61.09
44044;BME280;29709;52.396;16.796;2023-01-28T09:47:30;102810.51;;;0.95;61.53
44044;BME280;29709;52.396;16.796;2023-01-28T09:50:42;102801.52;;;0.94;60.98
44044;BME280;29709;52.396;16.796;2023-01-28T09:53:50;102803.30;;;0.94;61.32
44044;BME280;29709;52.396;16.796;2023-01-28T09:57:01;102802.32;;;0.96;61.17
44044;BME280;29709;52.396;16.796;2023-01-28T10:00:16;102797.95;;;0.92;61.04
44044;BME280;29709;52.396;16.796;2023-01-28T10:03:32;102802.20;;;0.99;61.69
44044;BME280;29709;52.396;16.796;2023-01-28T10:13:19;102806.53;;;0.80;61.53
44044;BME280;29709;52.396;16.796;2023-01-28T10:16:28;102806.77;;;0.74;61.34
44044;BME280;29709;52.396;16.796;2023-01-28T10:19:40;102815.16;;;0.66;61.47
44044;BME280;29709;52.396;16.796;2023-01-28T10:22:51;102811.78;;;0.60;61.58
44044;BME280;29709;52.396;16.796;2023-01-28T10:25:58;102807.58;;;0.51;61.42
44044;BME280;29709;52.396;16.796;2023-01-28T10:35:37;102824.48;;;0.33;62.11
44044;BME280;29709;52.396;16.796;2023-01-28T10:38:40;102829.84;;;0.34;61.95
44044;BME280;29709;52.396;16.796;2023-01-28T10:45:28;102826.19;;;0.35;62.62
44044;BME280;29709;52.396;16.796;2023-01-28T10:48:36;102833.98;;;0.44;62.33
44044;BME280;29709;52.396;16.796;2023-01-28T10:51:42;102832.42;;;0.37;61.76
44044;BME280;29709;52.396;16.796;2023-01-28T10:54:45;102824.56;;;0.29;61.72
44044;BME280;29709;52.396;16.796;2023-01-28T10:57:49;102826.30;;;0.32;61.69
44044;BME280;29709;52.396;16.796;2023-01-28T11:01:20;102830.48;;;0.41;62.21
44044;BME280;29709;52.396;16.796;2023-01-28T11:04:28;102832.66;;;0.56;61.80
44044;BME280;29709;52.396;16.796;2023-01-28T11:07:32;102823.40;;;0.63;61.51
44044;BME280;29709;52.396;16.796;2023-01-28T11:10:37;102827.58;;;0.72;61.62
44044;BME280;29709;52.396;16.796;2023-01-28T11:13:48;102825.80;;;0.71;60.60
44044;BME280;29709;52.396;16.796;2023-01-28T11:16:55;102832.77;;;0.78;61.36
44044;BME280;29709;52.396;16.796;2023-01-28T11:23:21;102832.33;;;0.90;60.35
44044;BME280;29709;52.396;16.796;2023-01-28T11:26:32;102818.08;;;0.85;60.47
44044;BME280;29709;52.396;16.796;2023-01-28T11:29:38;102817.77;;;0.93;61.02
44044;BME280;29709;52.396;16.796;2023-01-28T11:32:42;102817.77;;;0.93;60.25
44044;BME280;29709;52.396;16.796;2023-01-28T11:36:18;102815.38;;;0.85;59.78
44044;BME280;29709;52.396;16.796;2023-01-28T11:39:25;102805.45;;;0.85;59.68
44044;BME280;29709;52.396;16.796;2023-01-28T11:42:31;102811.48;;;0.92;60.34
44044;BME280;29709;52.396;16.796;2023-01-28T11:46:34;102811.68;;;1.11;60.42
44044;BME280;29709;52.396;16.796;2023-01-28T11:49:02;102812.41;;;1.16;60.11
44044;BME280;29709;52.396;16.796;2023-01-28T11:52:17;102810.57;;;1.17;60.12
44044;BME280;29709;52.396;16.796;2023-01-28T12:02:08;102800.54;;;1.42;60.69
44044;BME280;29709;52.396;16.796;2023-01-28T12:08:31;102789.48;;;1.70;60.48
44044;BME280;29709;52.396;16.796;2023-01-28T12:18:31;102777.93;;;1.65;59.97
44044;BME280;29709;52.396;16.796;2023-01-28T12:41:17;102769.27;;;1.33;59.35
44044;BME280;29709;52.396;16.796;2023-01-28T12:47:38;102767.43;;;1.34;59.30
44044;BME280;29709;52.396;16.796;2023-01-28T12:50:59;102781.48;;;1.22;58.88
44044;BME280;29709;52.396;16.796;2023-01-28T12:54:05;102780.25;;;1.07;58.52
44044;BME280;29709;52.396;16.796;2023-01-28T12:57:20;102769.64;;;1.01;58.38
44044;BME280;29709;52.396;16.796;2023-01-28T13:00:32;102774.01;;;1.05;59.47
44044;BME280;29709;52.396;16.796;2023-01-28T13:03:49;102777.28;;;1.13;58.97
44044;BME280;29709;52.396;16.796;2023-01-28T13:07:05;102791.09;;;1.07;58.38
44044;BME280;29709;52.396;16.796;2023-01-28T13:13:33;102793.54;;;0.90;58.28
44044;BME280;29709;52.396;16.796;2023-01-28T13:16:36;102790.61;;;0.96;58.37
44044;BME280;29709;52.396;16.796;2023-01-28T13:20:16;102802.20;;;0.99;58.24
44044;BME280;29709;52.396;16.796;2023-01-28T13:26:43;102791.02;;;0.85;57.75
44044;BME280;29709;52.396;16.796;2023-01-28T13:29:48;102791.16;;;0.80;57.14
44044;BME280;29709;52.396;16.796;2023-01-28T13:33:00;102791.45;;;0.73;57.48
44044;BME280;29709;52.396;16.796;2023-01-28T13:39:21;102797.66;;;1.00;57.76
44044;BME280;29709;52.396;16.796;2023-01-28T13:42:27;102801.04;;;1.06;57.50
44044;BME280;29709;52.396;16.796;2023-01-28T13:45:32;102789.41;;;1.03;57.52
44044;BME280;29709;52.396;16.796;2023-01-28T13:49:03;102786.78;;;1.01;57.78
44044;BME280;29709;52.396;16.796;2023-01-28T13:52:14;102791.37;;;0.99;57.60
44044;BME280;29709;52.396;16.796;2023-01-28T13:55:28;102801.91;;;1.07;57.65
44044;BME280;29709;52.396;16.796;2023-01-28T14:05:13;102788.72;;;1.21;57.31
44044;BME280;29709;52.396;16.796;2023-01-28T14:18:05;102790.41;;;1.24;56.78
44044;BME280;29709;52.396;16.796;2023-01-28T14:21:15;102788.43;;;1.29;56.94
44044;BME280;29709;52.396;16.796;2023-01-28T14:24:20;102790.64;;;1.41;57.59
44044;BME280;29709;52.396;16.796;2023-01-28T14:27:51;102789.76;;;1.40;56.97
44044;BME280;29709;52.396;16.796;2023-01-28T14:37:29;102784.20;;;1.67;56.50
44044;BME280;29709;52.396;16.796;2023-01-28T14:40:37;102779.20;;;1.78;56.13
44044;BME280;29709;52.396;16.796;2023-01-28T14:43:41;102784.05;;;1.92;57.98
44044;BME280;29709;52.396;16.796;2023-01-28T14:47:24;102777.61;;;1.94;58.37
44044;BME280;29709;52.396;16.796;2023-01-28T14:50:36;102775.84;;;1.93;57.69
44044;BME280;29709;52.396;16.796;2023-01-28T14:53:50;102773.28;;;1.90;57.34
44044;BME280;29709;52.396;16.796;2023-01-28T14:57:06;102766.89;;;1.91;57.01
44044;BME280;29709;52.396;16.796;2023-01-28T15:00:18;102770.10;;;2.01;57.66
44044;BME280;29709;52.396;16.796;2023-01-28T15:03:22;102768.95;;;2.07;56.87
44044;BME280;29709;52.396;16.796;2023-01-28T15:06:51;102771.73;;;2.05;58.25
44044;BME280;29709;52.396;16.796;2023-01-28T15:10:13;102762.07;;;1.98;58.11
44044;BME280;29709;52.396;16.796;2023-01-28T15:13:21;102751.89;;;1.83;58.04
44044;BME280;29709;52.396;16.796;2023-01-28T15:16:27;102745.97;;;1.73;57.96
44044;BME280;29709;52.396;16.796;2023-01-28T15:19:34;102757.97;;;1.67;58.53
44044;BME280;29709;52.396;16.796;2023-01-28T15:22:41;102752.34;;;1.72;57.88
44044;BME280;29709;52.396;16.796;2023-01-28T15:25:45;102760.17;;;1.80;58.53
44044;BME280;29709;52.396;16.796;2023-01-28T15:29:23;102752.34;;;1.72;58.63
44044;BME280;29709;52.396;16.796;2023-01-28T15:32:29;102753.81;;;1.59;58.82
44044;BME280;29709;52.396;16.796;2023-01-28T15:35:34;102762.11;;;1.54;59.14
44044;BME280;29709;52.396;16.796;2023-01-28T15:38:38;102754.78;;;1.56;59.46
44044;BME280;29709;52.396;16.796;2023-01-28T15:41:44;102740.80;;;1.45;59.05
44044;BME280;29709;52.396;16.796;2023-01-28T15:44:50;102753.45;;;1.44;59.82
44044;BME280;29709;52.396;16.796;2023-01-28T15:48:03;102746.73;;;1.55;59.85
44044;BME280;29709;52.396;16.796;2023-01-28T15:51:22;102744.80;;;1.58;59.32
44044;BME280;29709;52.396;16.796;2023-01-28T15:54:26;102744.90;;;1.55;59.16
44044;BME280;29709;52.396;16.796;2023-01-28T15:57:33;102740.43;;;1.54;59.42
44044;BME280;29709;52.396;16.796;2023-01-28T16:01:13;102739.69;;;1.51;59.15
44044;BME280;29709;52.396;16.796;2023-01-28T16:04:22;102742.88;;;1.38;59.39
44044;BME280;29709;52.396;16.796;2023-01-28T16:07:27;102754.15;;;1.28;59.78
44044;BME280;29709;52.396;16.796;2023-01-28T16:10:31;102744.27;;;1.27;60.09
44044;BME280;29709;52.396;16.796;2023-01-28T16:13:40;102751.02;;;1.38;59.93
44044;BME280;29709;52.396;16.796;2023-01-28T16:16:46;102747.29;;;1.41;59.85
44044;BME280;29709;52.396;16.796;2023-01-28T16:19:58;102761.73;;;1.41;59.96
44044;BME280;29709;52.396;16.796;2023-01-28T16:23:19;102747.09;;;1.45;60.00
44044;BME280;29709;52.396;16.796;2023-01-28T16:26:23;102760.90;;;1.39;60.15
44044;BME280;29709;52.396;16.796;2023-01-28T16:29:29;102759.77;;;1.45;60.53
44044;BME280;29709;52.396;16.796;2023-01-28T16:32:36;102757.94;;;1.45;60.07
44044;BME280;29709;52.396;16.796;2023-01-28T16:35:40;102765.25;;;1.43;59.86
44044;BME280;29709;52.396;16.796;2023-01-28T16:39:08;102765.25;;;1.43;59.99
44044;BME280;29709;52.396;16.796;2023-01-28T16:42:12;102775.13;;;1.44;60.21
44044;BME280;29709;52.396;16.796;2023-01-28T16:45:20;102776.22;;;1.40;60.43
44044;BME280;29709;52.396;16.796;2023-01-28T16:48:24;102772.50;;;1.43;60.86
44044;BME280;29709;52.396;16.796;2023-01-28T16:51:28;102776.80;;;1.49;60.58
44044;BME280;29709;52.396;16.796;2023-01-28T16:54:32;102779.52;;;1.49;60.89
44044;BME280;29709;52.396;16.796;2023-01-28T16:57:36;102780.38;;;1.49;60.51
44044;BME280;29709;52.396;16.796;2023-01-28T17:00:39;102796.58;;;1.51;61.15
44044;BME280;29709;52.396;16.796;2023-01-28T17:03:43;102799.16;;;1.54;60.89
44044;BME280;29709;52.396;16.796;2023-01-28T17:07:12;102805.53;;;1.53;61.23
44044;BME280;29709;52.396;16.796;2023-01-28T17:10:17;102798.16;;;1.56;61.29
44044;BME280;29709;52.396;16.796;2023-01-28T17:13:22;102809.70;;;1.61;61.32
44044;BME280;29709;52.396;16.796;2023-01-28T17:16:25;102813.43;;;1.59;60.44
44044;BME280;29709;52.396;16.796;2023-01-28T17:19:29;102810.79;;;1.57;60.54
44044;BME280;29709;52.396;16.796;2023-01-28T17:22:32;102817.91;;;1.60;60.97
44044;BME280;29709;52.396;16.796;2023-01-28T17:25:37;102815.19;;;1.60;60.73
44044;BME280;29709;52.396;16.796;2023-01-28T17:28:41;102809.94;;;1.55;60.36
44044;BME280;29709;52.396;16.796;2023-01-28T17:31:44;102809.90;;;1.57;60.77
44044;BME280;29709;52.396;16.796;2023-01-28T17:35:14;102823.39;;;1.58;60.80
44044;BME280;29709;52.396;16.796;2023-01-28T17:38:18;102825.09;;;1.61;61.27
44044;BME280;29709;52.396;16.796;2023-01-28T17:41:21;102812.28;;;1.64;61.43
44044;BME280;29709;52.396;16.796;2023-01-28T17:44:25;102806.92;;;1.63;61.15
44044;BME280;29709;52.396;16.796;2023-01-28T17:47:29;102797.24;;;1.57;61.41
44044;BME280;29709;52.396;16.796;2023-01-28T17:50:32;102804.48;;;1.57;61.81
44044;BME280;29709;52.396;16.796;2023-01-28T17:53:36;102803.70;;;1.53;61.90
44044;BME280;29709;52.396;16.796;2023-01-28T17:56:39;102792.87;;;1.53;62.08
44044;BME280;29709;52.396;16.796;2023-01-28T17:59:42;102793.81;;;1.52;62.29
44044;BME280;29709;52.396;16.796;2023-01-28T18:02:48;102801.30;;;1.45;62.11
44044;BME280;29709;52.396;16.796;2023-01-28T18:06:17;102806.70;;;1.45;62.54
44044;BME280;29709;52.396;16.796;2023-01-28T18:09:20;102817.54;;;1.45;63.04
44044;BME280;29709;52.396;16.796;2023-01-28T18:12:24;102819.88;;;1.55;62.75
44044;BME280;29709;52.396;16.796;2023-01-28T18:15:27;102826.10;;;1.58;63.09
44044;BME280;29709;52.396;16.796;2023-01-28T18:18:31;102828.73;;;1.60;62.98
44044;BME280;29709;52.396;16.796;2023-01-28T18:21:37;102821.50;;;1.60;62.97
44044;BME280;29709;52.396;16.796;2023-01-28T18:24:42;102833.16;;;1.62;63.10
44044;BME280;29709;52.396;16.796;2023-01-28T18:27:45;102835.98;;;1.59;62.96
44044;BME280;29709;52.396;16.796;2023-01-28T18:30:49;102846.02;;;1.57;63.30
44044;BME280;29709;52.396;16.796;2023-01-28T18:34:20;102835.27;;;1.54;63.48
44044;BME280;29709;52.396;16.796;2023-01-28T18:37:24;102846.11;;;1.54;63.83
44044;BME280;29709;52.396;16.796;2023-01-28T18:40:28;102837.09;;;1.54;63.38
44044;BME280;29709;52.396;16.796;2023-01-28T18:43:31;102835.48;;;1.50;63.51
44044;BME280;29709;52.396;16.796;2023-01-28T18:46:37;102837.37;;;1.48;64.39
44044;BME280;29709;52.396;16.796;2023-01-28T18:49:40;102843.18;;;1.60;63.72
44044;BME280;29709;52.396;16.796;2023-01-28T18:52:44;102839.45;;;1.63;64.01
44044;BME280;29709;52.396;16.796;2023-01-28T18:55:47;102846.63;;;1.64;63.96
44044;BME280;29709;52.396;16.796;2023-01-28T18:58:57;102839.32;;;1.66;64.33
44044;BME280;29709;52.396;16.796;2023-01-28T19:02:27;102836.59;;;1.67;64.25
44044;BME280;29709;52.396;16.796;2023-01-28T19:05:34;102831.09;;;1.69;64.17
44044;BME280;29709;52.396;16.796;2023-01-28T19:08:38;102825.73;;;1.67;64.20
44044;BME280;29709;52.396;16.796;2023-01-28T19:11:42;102823.12;;;1.64;64.40
44044;BME280;29709;52.396;16.796;2023-01-28T19:14:45;102803.41;;;1.61;64.28
44044;BME280;29709;52.396;16.796;2023-01-28T19:17:49;102793.05;;;1.49;64.37
44044;BME280;29709;52.396;16.796;2023-01-28T19:20:52;102810.56;;;1.40;64.69
44044;BME280;29709;52.396;16.796;2023-01-28T19:24:02;102812.45;;;1.38;65.11
44044;BME280;29709;52.396;16.796;2023-01-28T19:27:36;102820.64;;;1.36;65.07
44044;BME280;29709;52.396;16.796;2023-01-28T19:30:39;102809.08;;;1.31;65.26
44044;BME280;29709;52.396;16.796;2023-01-28T19:33:43;102812.96;;;1.24;65.59
44044;BME280;29709;52.396;16.796;2023-01-28T19:36:46;102828.45;;;1.21;65.82
44044;BME280;29709;52.396;16.796;2023-01-28T19:39:49;102828.11;;;1.30;65.91
44044;BME280;29709;52.396;16.796;2023-01-28T19:42:53;102817.08;;;1.34;65.88
44044;BME280;29709;52.396;16.796;2023-01-28T19:45:58;102817.05;;;1.36;66.04
44044;BME280;29709;52.396;16.796;2023-01-28T19:49:03;102823.39;;;1.35;66.15
44044;BME280;29709;52.396;16.796;2023-01-28T19:52:08;102820.74;;;1.33;66.45
44044;BME280;29709;52.396;16.796;2023-01-28T19:55:38;102836.05;;;1.34;67.07
44044;BME280;29709;52.396;16.796;2023-01-28T19:58:42;102827.64;;;1.42;67.05
44044;BME280;29709;52.396;16.796;2023-01-28T20:01:46;102824.77;;;1.47;66.81
44044;BME280;29709;52.396;16.796;2023-01-28T20:04:49;102826.52;;;1.48;66.76
44044;BME280;29709;52.396;16.796;2023-01-28T20:07:52;102823.09;;;1.42;66.97
44044;BME280;29709;52.396;16.796;2023-01-28T20:11:02;102819.57;;;1.40;67.03
44044;BME280;29709;52.396;16.796;2023-01-28T20:14:06;102815.86;;;1.43;67.10
44044;BME280;29709;52.396;16.796;2023-01-28T20:17:09;102823.88;;;1.46;67.49
44044;BME280;29709;52.396;16.796;2023-01-28T20:20:12;102825.50;;;1.50;67.49
44044;BME280;29709;52.396;16.796;2023-01-28T20:23:43;102823.74;;;1.49;67.52
44044;BME280;29709;52.396;16.796;2023-01-28T20:26:46;102824.04;;;1.41;67.89
44044;BME280;29709;52.396;16.796;2023-01-28T20:29:50;102817.67;;;1.42;67.85
44044;BME280;29709;52.396;16.796;2023-01-28T20:32:54;102817.54;;;1.45;68.54
44044;BME280;29709;52.396;16.796;2023-01-28T20:36:03;102798.48;;;1.49;68.09
44044;BME280;29709;52.396;16.796;2023-01-28T20:39:07;102806.66;;;1.47;68.03
44044;BME280;29709;52.396;16.796;2023-01-28T20:42:10;102802.21;;;1.46;68.48
44044;BME280;29709;52.396;16.796;2023-01-28T20:45:15;102793.13;;;1.47;68.51
44044;BME280;29709;52.396;16.796;2023-01-28T20:48:18;102789.58;;;1.45;68.55
44044;BME280;29709;52.396;16.796;2023-01-28T20:51:47;102797.66;;;1.47;69.30
44044;BME280;29709;52.396;16.796;2023-01-28T20:54:50;102791.84;;;1.56;68.85
44044;BME280;29709;52.396;16.796;2023-01-28T20:57:53;102809.63;;;1.63;68.77
44044;BME280;29709;52.396;16.796;2023-01-28T21:00:57;102811.30;;;1.67;68.55
44044;BME280;29709;52.396;16.796;2023-01-28T21:04:01;102801.27;;;1.69;68.53
44044;BME280;29709;52.396;16.796;2023-01-28T21:07:04;102811.17;;;1.70;68.20
44044;BME280;29709;52.396;16.796;2023-01-28T21:10:08;102810.45;;;1.65;68.45
44044;BME280;29709;52.396;16.796;2023-01-28T21:13:13;102811.40;;;1.64;68.28
44044;BME280;29709;52.396;16.796;2023-01-28T21:16:16;102819.47;;;1.65;68.50
44044;BME280;29709;52.396;16.796;2023-01-28T21:19:19;102823.06;;;1.66;68.74
44044;BME280;29709;52.396;16.796;2023-01-28T21:22:52;102811.52;;;1.61;68.87
44044;BME280;29709;52.396;16.796;2023-01-28T21:26:00;102814.24;;;1.61;68.92
44044;BME280;29709;52.396;16.796;2023-01-28T21:29:03;102810.59;;;1.62;68.89
44044;BME280;29709;52.396;16.796;2023-01-28T21:32:08;102805.23;;;1.60;68.80
44044;BME280;29709;52.396;16.796;2023-01-28T21:35:11;102809.63;;;1.63;69.02
44044;BME280;29709;52.396;16.796;2023-01-28T21:38:14;102806.92;;;1.63;69.24
44044;BME280;29709;52.396;16.796;2023-01-28T21:41:17;102809.57;;;1.64;69.17
44044;BME280;29709;52.396;16.796;2023-01-28T21:44:21;102808.81;;;1.61;69.80
44044;BME280;29709;52.396;16.796;2023-01-28T21:47:24;102806.69;;;1.69;69.36
44044;BME280;29709;52.396;16.796;2023-01-28T21:50:53;102813.06;;;1.68;69.26
44044;BME280;29709;52.396;16.796;2023-01-28T21:54:17;102807.51;;;1.71;69.06
44044;BME280;29709;52.396;16.796;2023-01-28T21:57:21;102809.20;;;1.73;69.33
44044;BME280;29709;52.396;16.796;2023-01-28T22:00:24;102819.16;;;1.73;69.57
44044;BME280;29709;52.396;16.796;2023-01-28T22:03:30;102788.16;;;1.80;69.17
44044;BME280;29709;52.396;16.796;2023-01-28T22:06:33;102794.46;;;1.81;68.78
44044;BME280;29709;52.396;16.796;2023-01-28T22:10:04;102797.41;;;1.74;69.01
44044;BME280;29709;52.396;16.796;2023-01-28T22:13:08;102798.22;;;1.77;69.10
44044;BME280;29709;52.396;16.796;2023-01-28T22:16:11;102796.39;;;1.77;69.04
44044;BME280;29709;52.396;16.796;2023-01-28T22:19:15;102792.80;;;1.77;69.10
44044;BME280;29709;52.396;16.796;2023-01-28T22:22:18;102796.46;;;1.76;69.21
44044;BME280;29709;52.396;16.796;2023-01-28T22:25:21;102797.35;;;1.76;69.13
44044;BME280;29709;52.396;16.796;2023-01-28T22:28:26;102790.22;;;1.73;69.11
44044;BME280;29709;52.396;16.796;2023-01-28T22:31:29;102796.46;;;1.76;69.20
44044;BME280;29709;52.396;16.796;2023-01-28T22:34:33;102789.04;;;1.81;69.29
44044;BME280;29709;52.396;16.796;2023-01-28T22:37:36;102789.10;;;1.79;69.20
44044;BME280;29709;52.396;16.796;2023-01-28T22:41:06;102788.26;;;1.77;69.23
44044;BME280;29709;52.396;16.796;2023-01-28T22:44:11;102796.66;;;1.71;68.73
44044;BME280;29709;52.396;16.796;2023-01-28T22:47:14;102801.21;;;1.70;69.34
44044;BME280;29709;52.396;16.796;2023-01-28T22:50:18;102803.04;;;1.70;69.28
44044;BME280;29709;52.396;16.796;2023-01-28T22:53:21;102788.67;;;1.68;69.31
44044;BME280;29709;52.396;16.796;2023-01-28T22:56:26;102803.04;;;1.70;69.22
44044;BME280;29709;52.396;16.796;2023-01-28T22:59:30;102792.13;;;1.71;69.28
44044;BME280;29709;52.396;16.796;2023-01-28T23:02:33;102791.25;;;1.71;69.46
44044;BME280;29709;52.396;16.796;2023-01-28T23:05:36;102799.52;;;1.68;69.34
44044;BME280;29709;52.396;16.796;2023-01-28T23:09:06;102804.80;;;1.71;69.31
44044;BME280;29709;52.396;16.796;2023-01-28T23:12:10;102791.48;;;1.65;69.67
44044;BME280;29709;52.396;16.796;2023-01-28T23:15:13;102785.38;;;1.60;69.49
44044;BME280;29709;52.396;16.796;2023-01-28T23:18:28;102776.47;;;1.56;69.49
44044;BME280;29709;52.396;16.796;2023-01-28T23:21:44;102765.45;;;1.61;69.60
44044;BME280;29709;52.396;16.796;2023-01-28T23:25:25;102764.44;;;1.63;69.64
44044;BME280;29709;52.396;16.796;2023-01-28T23:28:28;102756.23;;;1.65;69.39
44044;BME280;29709;52.396;16.796;2023-01-28T23:31:32;102756.14;;;1.68;69.39
44044;BME280;29709;52.396;16.796;2023-01-28T23:34:40;102739.98;;;1.65;69.35
44044;BME280;29709;52.396;16.796;2023-01-28T23:37:46;102744.58;;;1.63;69.31
44044;BME280;29709;52.396;16.796;2023-01-28T23:40:49;102742.19;;;1.55;69.10
44044;BME280;29709;52.396;16.796;2023-01-28T23:43:53;102730.60;;;1.52;69.20
44044;BME280;29709;52.396;16.796;2023-01-28T23:46:56;102728.91;;;1.49;68.96
44044;BME280;29709;52.396;16.796;2023-01-28T23:49:59;102724.67;;;1.42;68.91
44044;BME280;29709;52.396;16.796;2023-01-28T23:53:28;102736.52;;;1.39;69.25
44044;BME280;29709;52.396;16.796;2023-01-28T23:56:33;102745.70;;;1.35;69.46
44044;BME280;29709;52.396;16.796;2023-01-28T23:59:36;102738.66;;;1.31;69.10
